Lake Ridge, Virginia
Current Conditions -  °F | °C
As of 1:58 PM on Friday 24 Oct 2014 (Local Time) from KDAA Reporting Station
Clear Clear  
Wind Chill: 65°   Ceiling: Unl
Heat Index: 65°   Visibility: 10mi
Dew Point: 41°   Wind: 15mph
Humidity: 40%   Direction: 300°WNW
Pressure: 29.92"   Gusts: NA
Location:  38.6839°N, 77.3246°W
Report Text: KDAA 241758Z AUTO 30013KT 10SM CLR 19/05 A2992 RMK AO2 SLP135 T01850048 10186 20116 57024
Loading
Personal Weather Stations






























Interactive Weather Map
Tropical Storm Tracking
New forecast layout! Learn more

10-Day Weather Forecast

Advertisements
Track Severe Weather on mobile